Lord Nelson — GHJV — position and weather

sailwx.info

Track history (hours):
 
Tides and Currents Weather Stations Pressure Air Temp Water Temp Dewpoint Dewpoint Depression Visibility Wind Speed Wind Dir Waves Ship Positions

Lord Nelson (United Kingdom)

Ship's website: http://www.jst.org.uk/

Last reported at 2019-Oct-17 10:29 UTC. Time now 2019-Oct-17 18:52 UTC.
Position N 51°27' W 002°36'.

Length 54.7 m; beam 9 m; draft 4.1 m.

Type: Sailing vessel. MMSI: 232003690.

Date/timePositionNaut miles runAvg speedWind from/ knotsBaromVisibWave heightAir tempDewpointWater temp
2019-Oct-17 10:29N 51°27' W 002°36'1 1.1
2019-Oct-17 09:53N 51°27' W 002°37'1 0.3
2019-Oct-17 07:50N 51°27' W 002°38'1 2.2
2019-Oct-17 07:30N 51°28' W 002°38'1 1.8
2019-Oct-17 07:00N 51°29' W 002°39'1 1.7
2019-Oct-17 06:31N 51°29' W 002°40'1 1.8
2019-Oct-17 06:00N 51°29' W 002°41'2 3.9
2019-Oct-17 05:30N 51°30' W 002°44'5 9.4
2019-Oct-17 05:00N 51°28' W 002°51'4 8.8
2019-Oct-17 04:30N 51°27' W 002°58'60 1.2
2019-Oct-15 04:10N 51°09' W 004°30'210.3
2019-Oct-15 03:59N 51°08' W 004°32'510.7
2019-Oct-15 03:30N 51°05' W 004°38'510.1
2019-Oct-15 03:00N 51°01' W 004°44'5 9.3
2019-Oct-15 02:30N 50°58' W 004°49'4 8.9
2019-Oct-15 02:00N 50°55' W 004°55'4 8.5
2019-Oct-15 01:30N 50°52' W 004°60'4 8.3
2019-Oct-15 01:00N 50°49' W 005°04'4 8.0
2019-Oct-15 00:30N 50°46' W 005°09'4 7.7
2019-Oct-14 23:59N 50°43' W 005°13'4 7.5
2019-Oct-14 23:30N 50°41' W 005°17'4 7.3
2019-Oct-14 23:00N 50°39' W 005°22'4 7.1
2019-Oct-14 22:30N 50°36' W 005°26'4 7.1
2019-Oct-14 22:00N 50°34' W 005°30'57 4.6
2019-Oct-14 09:39N 50°01' W 004°17'89 8.0
2019-Oct-13 22:32N 50°28' W 002°05'1 7.0
2019-Oct-13 22:24N 50°28' W 002°04'3 6.3
2019-Oct-13 22:00N 50°28' W 001°60'3 5.6
2019-Oct-13 21:30N 50°27' W 001°55'2 4.9
2019-Oct-13 21:00N 50°27' W 001°52'6 2.0
2019-Oct-13 17:58N 50°28' W 001°43'3 5.7
2019-Oct-13 17:30N 50°31' W 001°43'3 5.4
2019-Oct-13 17:00N 50°34' W 001°41'3 5.9
2019-Oct-13 16:30N 50°36' W 001°39'4 6.1
2019-Oct-13 15:53N 50°40' W 001°37'11 2.6
2019-Oct-13 11:39N 50°45' W 001°22'1 8.8
2019-Oct-13 11:30N 50°46' W 001°21'3 7.1
2019-Oct-13 11:01N 50°49' W 001°18'4 8.3
2019-Oct-13 10:30N 50°52' W 001°23'1 0.3
2019-Oct-13 05:23N 50°54' W 001°24'0 0.0
2019-Oct-13 01:29N 50°54' W 001°24'0 0.0
2019-Oct-12 21:35N 50°54' W 001°24'0 0.0
2019-Oct-12 20:59N 50°54' W 001°24'0 0.0
2019-Oct-12 15:08N 50°54' W 001°24'0 2.5
2019-Oct-12 14:57N 50°53' W 001°24'3 6.9
2019-Oct-12 14:30N 50°51' W 001°20'3 6.6
2019-Oct-12 14:01N 50°48' W 001°17'3 6.7
2019-Oct-12 13:30N 50°46' W 001°21'2 1.0
2019-Oct-12 11:44N 50°45' W 001°24'2 9.1
2019-Oct-12 11:28N 50°46' W 001°20'3 6.8
2019-Oct-12 11:00N 50°49' W 001°18'3 6.0
2019-Oct-12 10:31N 50°51' W 001°21'3 5.5
2019-Oct-12 10:00N 50°53' W 001°24'0 0.0
2019-Oct-11 11:30N 50°54' W 001°24'0 0.9
2019-Oct-11 10:57N 50°54' W 001°25'2 3.6
2019-Oct-11 10:30N 50°52' W 001°23'4 7.7
2019-Oct-11 10:00N 50°50' W 001°19'4 7.5
2019-Oct-11 09:30N 50°47' W 001°14'4 7.2
2019-Oct-11 09:00N 50°46' W 001°09'3 6.7
2019-Oct-11 08:30N 50°44' W 001°05'1 2.5
2019-Oct-11 07:59N 50°43' W 001°04'0 0.0
2019-Oct-11 07:29N 50°43' W 001°04'0 0.0
2019-Oct-11 06:59N 50°43' W 001°04'0 0.0
2019-Oct-11 06:29N 50°43' W 001°04'0 0.0
2019-Oct-11 05:59N 50°43' W 001°04'0 0.0
2019-Oct-11 05:29N 50°43' W 001°04'0 0.0
2019-Oct-11 04:59N 50°43' W 001°04'0 0.0
2019-Oct-11 04:29N 50°43' W 001°04'0 0.0
2019-Oct-11 03:59N 50°43' W 001°04'0 0.0
2019-Oct-11 03:29N 50°43' W 001°04'0 0.0
2019-Oct-11 02:59N 50°43' W 001°04'0 0.0
2019-Oct-11 02:29N 50°43' W 001°04'0 0.0
2019-Oct-11 01:59N 50°42' W 001°04'0 0.0
2019-Oct-11 01:29N 50°42' W 001°04'0 0.0
2019-Oct-11 00:59N 50°42' W 001°04'0 0.0
2019-Oct-11 00:29N 50°43' W 001°04'0 0.0
2019-Oct-10 23:59N 50°43' W 001°04'0 0.0
2019-Oct-10 23:29N 50°43' W 001°04'0 0.0
2019-Oct-10 22:59N 50°43' W 001°04'0 0.0
2019-Oct-10 22:29N 50°43' W 001°04'0 0.0
2019-Oct-10 21:59N 50°43' W 001°04'0 0.0
2019-Oct-10 21:29N 50°43' W 001°04'0 0.0
2019-Oct-10 20:59N 50°43' W 001°04'0 0.0
2019-Oct-10 20:29N 50°43' W 001°04'0 0.0
2019-Oct-10 19:59N 50°43' W 001°04'0 0.0
2019-Oct-10 19:29N 50°43' W 001°04'0 0.0
2019-Oct-10 18:59N 50°43' W 001°04'0 0.0
2019-Oct-10 18:29N 50°43' W 001°04'0 0.0
2019-Oct-10 17:59N 50°43' W 001°04'0 0.0
2019-Oct-10 17:29N 50°43' W 001°04'0 0.0
2019-Oct-10 16:59N 50°42' W 001°04'0 0.0
2019-Oct-10 16:29N 50°42' W 001°04'0 0.0
2019-Oct-10 15:59N 50°42' W 001°04'0 0.0
2019-Oct-10 15:29N 50°42' W 001°04'0 0.0
2019-Oct-10 14:59N 50°42' W 001°04'0 0.0
2019-Oct-10 14:29N 50°42' W 001°04'0 0.0
2019-Oct-10 13:59N 50°42' W 001°04'1 2.8
2019-Oct-10 13:31N 50°41' W 001°03'3 6.5
2019-Oct-10 13:00N 50°38' W 001°02'3 1.8
2019-Oct-10 11:23N 50°35' W 001°01'3 8.8
2019-Oct-10 11:00N 50°39' W 001°02'3 6.1
2019-Oct-10 10:29N 50°42' W 001°03'1 1.6
2019-Oct-10 10:00N 50°42' W 001°04'0 0.0
2019-Oct-10 09:30N 50°42' W 001°04'0 0.0
2019-Oct-10 09:00N 50°42' W 001°04'0 0.0
2019-Oct-10 08:30N 50°42' W 001°04'0 0.0
2019-Oct-10 08:00N 50°42' W 001°04'0 0.0
2019-Oct-10 07:30N 50°42' W 001°04'0 0.0
2019-Oct-10 07:00N 50°42' W 001°04'0 0.0
2019-Oct-10 06:30N 50°42' W 001°04'0 0.0
2019-Oct-10 06:00N 50°42' W 001°04'0 0.0
2019-Oct-10 05:30N 50°42' W 001°04'0 0.0
2019-Oct-10 05:00N 50°42' W 001°04'0 0.0
2019-Oct-10 04:30N 50°42' W 001°04'0 0.0
2019-Oct-10 04:00N 50°42' W 001°04'0 0.0
2019-Oct-10 03:30N 50°42' W 001°04'0 0.0
2019-Oct-10 03:00N 50°42' W 001°04'0 0.0
2019-Oct-10 02:30N 50°42' W 001°04'0 0.0
2019-Oct-10 02:00N 50°42' W 001°04'0 0.0
2019-Oct-10 01:30N 50°42' W 001°04'0 0.0
2019-Oct-10 01:00N 50°42' W 001°04'0 0.0
2019-Oct-10 00:30N 50°42' W 001°04'0 0.0
2019-Oct-10 00:00N 50°42' W 001°04'0 0.0
2019-Oct-09 23:30N 50°42' W 001°04'0 0.0
2019-Oct-09 23:00N 50°42' W 001°04'0 0.0
2019-Oct-09 22:30N 50°42' W 001°04'0 0.0
2019-Oct-09 22:00N 50°42' W 001°04'0 0.0
2019-Oct-09 21:30N 50°42' W 001°04'0 0.0
2019-Oct-09 21:00N 50°42' W 001°04'0 0.0
2019-Oct-09 20:30N 50°42' W 001°04'0 0.0
2019-Oct-09 20:00N 50°42' W 001°04'0 0.0
2019-Oct-09 19:30N 50°42' W 001°04'0 0.0
2019-Oct-09 19:00N 50°42' W 001°04'0 0.0
2019-Oct-09 18:30N 50°42' W 001°04'0 0.0
2019-Oct-09 18:00N 50°42' W 001°04'0 0.0
2019-Oct-09 17:30N 50°42' W 001°04'0 0.0
2019-Oct-09 17:00N 50°42' W 001°04'0 0.0
2019-Oct-09 16:30N 50°42' W 001°04'0 0.0
2019-Oct-09 16:00N 50°42' W 001°04'0 0.1
2019-Oct-09 15:30N 50°42' W 001°04'3 5.6
2019-Oct-09 15:00N 50°41' W 001°01'1 3.0
2019-Oct-09 14:30N 50°42' W 001°02'4 8.8
2019-Oct-09 14:00N 50°45' W 001°07'4 8.5
2019-Oct-09 13:30N 50°47' W 001°13'3 6.9
2019-Oct-09 13:00N 50°46' W 001°19'3 5.8
2019-Oct-09 12:27N 50°45' W 001°23'4 2.5
2019-Oct-09 10:48N 50°43' W 001°29'3 6.2
2019-Oct-09 10:14N 50°45' W 001°24'2 8.7
2019-Oct-09 10:00N 50°46' W 001°21'4 8.3
2019-Oct-09 09:30N 50°47' W 001°15'4 7.7
2019-Oct-09 09:00N 50°46' W 001°09'4 7.3
2019-Oct-09 08:30N 50°44' W 001°05'1 2.1
2019-Oct-09 07:56N 50°42' W 001°04'0 0.1
2019-Oct-09 07:29N 50°43' W 001°04'0 0.0
2019-Oct-09 06:59N 50°43' W 001°04'0 0.0
2019-Oct-09 06:29N 50°43' W 001°04'0 0.0
2019-Oct-09 05:59N 50°43' W 001°04'0 0.0
2019-Oct-09 05:29N 50°43' W 001°04'0 0.1
2019-Oct-09 04:59N 50°42' W 001°04'0 0.0
2019-Oct-09 04:29N 50°42' W 001°04'0 0.0
2019-Oct-09 03:59N 50°42' W 001°04'0 0.0
2019-Oct-09 03:29N 50°42' W 001°04'0 0.0
2019-Oct-09 02:59N 50°42' W 001°04'0 0.0
2019-Oct-09 02:29N 50°42' W 001°04'0 0.0
2019-Oct-09 01:59N 50°42' W 001°04'0 0.0
2019-Oct-09 01:29N 50°42' W 001°04'0 0.0
2019-Oct-09 00:59N 50°42' W 001°04'0 0.0
2019-Oct-09 00:29N 50°42' W 001°04'0 0.0
2019-Oct-08 23:59N 50°42' W 001°04'0 0.0
2019-Oct-08 23:29N 50°42' W 001°04'0 0.0
2019-Oct-08 22:59N 50°42' W 001°04'0 0.0
2019-Oct-08 22:29N 50°42' W 001°04'0 0.0
2019-Oct-08 21:59N 50°42' W 001°04'0 0.0
2019-Oct-08 21:29N 50°42' W 001°04'0 0.0
2019-Oct-08 20:59N 50°42' W 001°04'0 0.0
2019-Oct-08 20:29N 50°42' W 001°04'0 0.0
2019-Oct-08 19:59N 50°42' W 001°04'0 0.0
2019-Oct-08 19:29N 50°42' W 001°04'0 0.0
2019-Oct-08 18:59N 50°42' W 001°04'0 0.0
2019-Oct-08 18:29N 50°42' W 001°04'0 0.0
2019-Oct-08 17:59N 50°42' W 001°04'0 0.0
2019-Oct-08 17:29N 50°42' W 001°04'0 0.0
2019-Oct-08 16:59N 50°42' W 001°04'0 0.0
2019-Oct-08 16:26N 50°42' W 001°04'0 0.0
2019-Oct-08 15:59N 50°42' W 001°04'0 0.0
2019-Oct-08 15:29N 50°42' W 001°04'0 0.0
2019-Oct-08 14:59N 50°42' W 001°04'0 0.0
2019-Oct-08 14:29N 50°42' W 001°04'2 3.8
2019-Oct-08 14:00N 50°41' W 001°02'1 1.7
2019-Oct-08 13:30N 50°42' W 001°02'5 9.4
2019-Oct-08 13:00N 50°45' W 001°08'4 8.6
2019-Oct-08 12:30N 50°47' W 001°15'4 7.1
2019-Oct-08 12:00N 50°46' W 001°20'3 5.8
2019-Oct-08 11:28N 50°45' W 001°25'0 0.2
2019-Oct-08 09:56N 50°45' W 001°25'0 0.0
2019-Oct-08 09:26N 50°45' W 001°25'0 0.0
2019-Oct-08 08:35N 50°45' W 001°25'0 0.1
2019-Oct-08 08:11N 50°45' W 001°25'0 0.1
2019-Oct-08 07:59N 50°45' W 001°25'0 0.0
2019-Oct-08 07:08N 50°45' W 001°25'0 0.0
2019-Oct-08 04:56N 50°45' W 001°25'0 0.0
2019-Oct-08 03:26N 50°45' W 001°25'0 0.0
2019-Oct-07 22:23N 50°45' W 001°25'0 0.1
2019-Oct-07 21:56N 50°45' W 001°25'0 0.0
2019-Oct-07 21:05N 50°45' W 001°25'0 0.0
2019-Oct-07 19:11N 50°45' W 001°25'0 0.1
2019-Oct-07 18:53N 50°45' W 001°25'2 3.9
2019-Oct-07 18:17N 50°46' W 001°21'2 6.5
2019-Oct-07 18:00N 50°47' W 001°19'3 5.9
2019-Oct-07 17:31N 50°50' W 001°19'4 7.7
2019-Oct-07 17:00N 50°53' W 001°24'  
Track history (hours):
 
Tides and Currents Weather Stations Pressure Air Temp Water Temp Dewpoint Dewpoint Depression Visibility Wind Speed Wind Dir Waves Ship Positions

Lord Nelson (United Kingdom)

Ship's website: http://www.jst.org.uk/

Last reported at 2019-Oct-17 10:29 UTC. Time now 2019-Oct-17 18:52 UTC.
Position N 51°27' W 002°36'.

Length 54.7 m; beam 9 m; draft 4.1 m.

Type: Sailing vessel. MMSI: 232003690.

Date/timePositionNaut miles runAvg speedWind from/ knotsBaromVisibWave heightAir tempDewpointWater temp
2019-Oct-17 10:29N 51°27' W 002°36'1 1.1
2019-Oct-17 09:53N 51°27' W 002°37'1 0.3
2019-Oct-17 07:50N 51°27' W 002°38'1 2.2
2019-Oct-17 07:30N 51°28' W 002°38'1 1.8
2019-Oct-17 07:00N 51°29' W 002°39'1 1.7
2019-Oct-17 06:31N 51°29' W 002°40'1 1.8
2019-Oct-17 06:00N 51°29' W 002°41'2 3.9
2019-Oct-17 05:30N 51°30' W 002°44'5 9.4
2019-Oct-17 05:00N 51°28' W 002°51'4 8.8
2019-Oct-17 04:30N 51°27' W 002°58'60 1.2
2019-Oct-15 04:10N 51°09' W 004°30'210.3
2019-Oct-15 03:59N 51°08' W 004°32'510.7
2019-Oct-15 03:30N 51°05' W 004°38'510.1
2019-Oct-15 03:00N 51°01' W 004°44'5 9.3
2019-Oct-15 02:30N 50°58' W 004°49'4 8.9
2019-Oct-15 02:00N 50°55' W 004°55'4 8.5
2019-Oct-15 01:30N 50°52' W 004°60'4 8.3
2019-Oct-15 01:00N 50°49' W 005°04'4 8.0
2019-Oct-15 00:30N 50°46' W 005°09'4 7.7
2019-Oct-14 23:59N 50°43' W 005°13'4 7.5
2019-Oct-14 23:30N 50°41' W 005°17'4 7.3
2019-Oct-14 23:00N 50°39' W 005°22'4 7.1
2019-Oct-14 22:30N 50°36' W 005°26'4 7.1
2019-Oct-14 22:00N 50°34' W 005°30'57 4.6
2019-Oct-14 09:39N 50°01' W 004°17'89 8.0
2019-Oct-13 22:32N 50°28' W 002°05'1 7.0
2019-Oct-13 22:24N 50°28' W 002°04'3 6.3
2019-Oct-13 22:00N 50°28' W 001°60'3 5.6
2019-Oct-13 21:30N 50°27' W 001°55'2 4.9
2019-Oct-13 21:00N 50°27' W 001°52'6 2.0
2019-Oct-13 17:58N 50°28' W 001°43'3 5.7
2019-Oct-13 17:30N 50°31' W 001°43'3 5.4
2019-Oct-13 17:00N 50°34' W 001°41'3 5.9
2019-Oct-13 16:30N 50°36' W 001°39'4 6.1
2019-Oct-13 15:53N 50°40' W 001°37'11 2.6
2019-Oct-13 11:39N 50°45' W 001°22'1 8.8
2019-Oct-13 11:30N 50°46' W 001°21'3 7.1
2019-Oct-13 11:01N 50°49' W 001°18'4 8.3
2019-Oct-13 10:30N 50°52' W 001°23'1 0.3
2019-Oct-13 05:23N 50°54' W 001°24'0 0.0
2019-Oct-13 01:29N 50°54' W 001°24'0 0.0
2019-Oct-12 21:35N 50°54' W 001°24'0 0.0
2019-Oct-12 20:59N 50°54' W 001°24'0 0.0
2019-Oct-12 15:08N 50°54' W 001°24'0 2.5
2019-Oct-12 14:57N 50°53' W 001°24'3 6.9
2019-Oct-12 14:30N 50°51' W 001°20'3 6.6
2019-Oct-12 14:01N 50°48' W 001°17'3 6.7
2019-Oct-12 13:30N 50°46' W 001°21'2 1.0
2019-Oct-12 11:44N 50°45' W 001°24'2 9.1
2019-Oct-12 11:28N 50°46' W 001°20'3 6.8
2019-Oct-12 11:00N 50°49' W 001°18'3 6.0
2019-Oct-12 10:31N 50°51' W 001°21'3 5.5
2019-Oct-12 10:00N 50°53' W 001°24'0 0.0
2019-Oct-11 11:30N 50°54' W 001°24'0 0.9
2019-Oct-11 10:57N 50°54' W 001°25'2 3.6
2019-Oct-11 10:30N 50°52' W 001°23'4 7.7
2019-Oct-11 10:00N 50°50' W 001°19'4 7.5
2019-Oct-11 09:30N 50°47' W 001°14'4 7.2
2019-Oct-11 09:00N 50°46' W 001°09'3 6.7
2019-Oct-11 08:30N 50°44' W 001°05'1 2.5
2019-Oct-11 07:59N 50°43' W 001°04'0 0.0
2019-Oct-11 07:29N 50°43' W 001°04'0 0.0
2019-Oct-11 06:59N 50°43' W 001°04'0 0.0
2019-Oct-11 06:29N 50°43' W 001°04'0 0.0
2019-Oct-11 05:59N 50°43' W 001°04'0 0.0
2019-Oct-11 05:29N 50°43' W 001°04'0 0.0
2019-Oct-11 04:59N 50°43' W 001°04'0 0.0
2019-Oct-11 04:29N 50°43' W 001°04'0 0.0
2019-Oct-11 03:59N 50°43' W 001°04'0 0.0
2019-Oct-11 03:29N 50°43' W 001°04'0 0.0
2019-Oct-11 02:59N 50°43' W 001°04'0 0.0
2019-Oct-11 02:29N 50°43' W 001°04'0 0.0
2019-Oct-11 01:59N 50°42' W 001°04'0 0.0
2019-Oct-11 01:29N 50°42' W 001°04'0 0.0
2019-Oct-11 00:59N 50°42' W 001°04'0 0.0
2019-Oct-11 00:29N 50°43' W 001°04'0 0.0
2019-Oct-10 23:59N 50°43' W 001°04'0 0.0
2019-Oct-10 23:29N 50°43' W 001°04'0 0.0
2019-Oct-10 22:59N 50°43' W 001°04'0 0.0
2019-Oct-10 22:29N 50°43' W 001°04'0 0.0
2019-Oct-10 21:59N 50°43' W 001°04'0 0.0
2019-Oct-10 21:29N 50°43' W 001°04'0 0.0
2019-Oct-10 20:59N 50°43' W 001°04'0 0.0
2019-Oct-10 20:29N 50°43' W 001°04'0 0.0
2019-Oct-10 19:59N 50°43' W 001°04'0 0.0
2019-Oct-10 19:29N 50°43' W 001°04'0 0.0
2019-Oct-10 18:59N 50°43' W 001°04'0 0.0
2019-Oct-10 18:29N 50°43' W 001°04'0 0.0
2019-Oct-10 17:59N 50°43' W 001°04'0 0.0
2019-Oct-10 17:29N 50°43' W 001°04'0 0.0
2019-Oct-10 16:59N 50°42' W 001°04'0 0.0
2019-Oct-10 16:29N 50°42' W 001°04'0 0.0
2019-Oct-10 15:59N 50°42' W 001°04'0 0.0
2019-Oct-10 15:29N 50°42' W 001°04'0 0.0
2019-Oct-10 14:59N 50°42' W 001°04'0 0.0
2019-Oct-10 14:29N 50°42' W 001°04'0 0.0
2019-Oct-10 13:59N 50°42' W 001°04'1 2.8
2019-Oct-10 13:31N 50°41' W 001°03'3 6.5
2019-Oct-10 13:00N 50°38' W 001°02'3 1.8
2019-Oct-10 11:23N 50°35' W 001°01'3 8.8
2019-Oct-10 11:00N 50°39' W 001°02'3 6.1
2019-Oct-10 10:29N 50°42' W 001°03'1 1.6
2019-Oct-10 10:00N 50°42' W 001°04'0 0.0
2019-Oct-10 09:30N 50°42' W 001°04'0 0.0
2019-Oct-10 09:00N 50°42' W 001°04'0 0.0
2019-Oct-10 08:30N 50°42' W 001°04'0 0.0
2019-Oct-10 08:00N 50°42' W 001°04'0 0.0
2019-Oct-10 07:30N 50°42' W 001°04'0 0.0
2019-Oct-10 07:00N 50°42' W 001°04'0 0.0
2019-Oct-10 06:30N 50°42' W 001°04'0 0.0
2019-Oct-10 06:00N 50°42' W 001°04'0 0.0
2019-Oct-10 05:30N 50°42' W 001°04'0 0.0
2019-Oct-10 05:00N 50°42' W 001°04'0 0.0
2019-Oct-10 04:30N 50°42' W 001°04'0 0.0
2019-Oct-10 04:00N 50°42' W 001°04'0 0.0
2019-Oct-10 03:30N 50°42' W 001°04'0 0.0
2019-Oct-10 03:00N 50°42' W 001°04'0 0.0
2019-Oct-10 02:30N 50°42' W 001°04'0 0.0
2019-Oct-10 02:00N 50°42' W 001°04'0 0.0
2019-Oct-10 01:30N 50°42' W 001°04'0 0.0
2019-Oct-10 01:00N 50°42' W 001°04'0 0.0
2019-Oct-10 00:30N 50°42' W 001°04'0 0.0
2019-Oct-10 00:00N 50°42' W 001°04'0 0.0
2019-Oct-09 23:30N 50°42' W 001°04'0 0.0
2019-Oct-09 23:00N 50°42' W 001°04'0 0.0
2019-Oct-09 22:30N 50°42' W 001°04'0 0.0
2019-Oct-09 22:00N 50°42' W 001°04'0 0.0
2019-Oct-09 21:30N 50°42' W 001°04'0 0.0
2019-Oct-09 21:00N 50°42' W 001°04'0 0.0
2019-Oct-09 20:30N 50°42' W 001°04'0 0.0
2019-Oct-09 20:00N 50°42' W 001°04'0 0.0
2019-Oct-09 19:30N 50°42' W 001°04'0 0.0
2019-Oct-09 19:00N 50°42' W 001°04'0 0.0
2019-Oct-09 18:30N 50°42' W 001°04'0 0.0
2019-Oct-09 18:00N 50°42' W 001°04'0 0.0
2019-Oct-09 17:30N 50°42' W 001°04'0 0.0
2019-Oct-09 17:00N 50°42' W 001°04'0 0.0
2019-Oct-09 16:30N 50°42' W 001°04'0 0.0
2019-Oct-09 16:00N 50°42' W 001°04'0 0.1
2019-Oct-09 15:30N 50°42' W 001°04'3 5.6
2019-Oct-09 15:00N 50°41' W 001°01'1 3.0
2019-Oct-09 14:30N 50°42' W 001°02'4 8.8
2019-Oct-09 14:00N 50°45' W 001°07'4 8.5
2019-Oct-09 13:30N 50°47' W 001°13'3 6.9
2019-Oct-09 13:00N 50°46' W 001°19'3 5.8
2019-Oct-09 12:27N 50°45' W 001°23'4 2.5
2019-Oct-09 10:48N 50°43' W 001°29'3 6.2
2019-Oct-09 10:14N 50°45' W 001°24'2 8.7
2019-Oct-09 10:00N 50°46' W 001°21'4 8.3
2019-Oct-09 09:30N 50°47' W 001°15'4 7.7
2019-Oct-09 09:00N 50°46' W 001°09'4 7.3
2019-Oct-09 08:30N 50°44' W 001°05'1 2.1
2019-Oct-09 07:56N 50°42' W 001°04'0 0.1
2019-Oct-09 07:29N 50°43' W 001°04'0 0.0
2019-Oct-09 06:59N 50°43' W 001°04'0 0.0
2019-Oct-09 06:29N 50°43' W 001°04'0 0.0
2019-Oct-09 05:59N 50°43' W 001°04'0 0.0
2019-Oct-09 05:29N 50°43' W 001°04'0 0.1
2019-Oct-09 04:59N 50°42' W 001°04'0 0.0
2019-Oct-09 04:29N 50°42' W 001°04'0 0.0
2019-Oct-09 03:59N 50°42' W 001°04'0 0.0
2019-Oct-09 03:29N 50°42' W 001°04'0 0.0
2019-Oct-09 02:59N 50°42' W 001°04'0 0.0
2019-Oct-09 02:29N 50°42' W 001°04'0 0.0
2019-Oct-09 01:59N 50°42' W 001°04'0 0.0
2019-Oct-09 01:29N 50°42' W 001°04'0 0.0
2019-Oct-09 00:59N 50°42' W 001°04'0 0.0
2019-Oct-09 00:29N 50°42' W 001°04'0 0.0
2019-Oct-08 23:59N 50°42' W 001°04'0 0.0
2019-Oct-08 23:29N 50°42' W 001°04'0 0.0
2019-Oct-08 22:59N 50°42' W 001°04'0 0.0
2019-Oct-08 22:29N 50°42' W 001°04'0 0.0
2019-Oct-08 21:59N 50°42' W 001°04'0 0.0
2019-Oct-08 21:29N 50°42' W 001°04'0 0.0
2019-Oct-08 20:59N 50°42' W 001°04'0 0.0
2019-Oct-08 20:29N 50°42' W 001°04'0 0.0
2019-Oct-08 19:59N 50°42' W 001°04'0 0.0
2019-Oct-08 19:29N 50°42' W 001°04'0 0.0
2019-Oct-08 18:59N 50°42' W 001°04'0 0.0
2019-Oct-08 18:29N 50°42' W 001°04'0 0.0
2019-Oct-08 17:59N 50°42' W 001°04'0 0.0
2019-Oct-08 17:29N 50°42' W 001°04'0 0.0
2019-Oct-08 16:59N 50°42' W 001°04'0 0.0
2019-Oct-08 16:26N 50°42' W 001°04'0 0.0
2019-Oct-08 15:59N 50°42' W 001°04'0 0.0
2019-Oct-08 15:29N 50°42' W 001°04'0 0.0
2019-Oct-08 14:59N 50°42' W 001°04'0 0.0
2019-Oct-08 14:29N 50°42' W 001°04'2 3.8
2019-Oct-08 14:00N 50°41' W 001°02'1 1.7
2019-Oct-08 13:30N 50°42' W 001°02'5 9.4
2019-Oct-08 13:00N 50°45' W 001°08'4 8.6
2019-Oct-08 12:30N 50°47' W 001°15'4 7.1
2019-Oct-08 12:00N 50°46' W 001°20'3 5.8
2019-Oct-08 11:28N 50°45' W 001°25'0 0.2
2019-Oct-08 09:56N 50°45' W 001°25'0 0.0
2019-Oct-08 09:26N 50°45' W 001°25'0 0.0
2019-Oct-08 08:35N 50°45' W 001°25'0 0.1
2019-Oct-08 08:11N 50°45' W 001°25'0 0.1
2019-Oct-08 07:59N 50°45' W 001°25'0 0.0
2019-Oct-08 07:08N 50°45' W 001°25'0 0.0
2019-Oct-08 04:56N 50°45' W 001°25'0 0.0
2019-Oct-08 03:26N 50°45' W 001°25'0 0.0
2019-Oct-07 22:23N 50°45' W 001°25'0 0.1
2019-Oct-07 21:56N 50°45' W 001°25'0 0.0
2019-Oct-07 21:05N 50°45' W 001°25'0 0.0
2019-Oct-07 19:11N 50°45' W 001°25'0 0.1
2019-Oct-07 18:53N 50°45' W 001°25'2 3.9
2019-Oct-07 18:17N 50°46' W 001°21'2 6.5
2019-Oct-07 18:00N 50°47' W 001°19'3 5.9
2019-Oct-07 17:31N 50°50' W 001°19'4 7.7
2019-Oct-07 17:00N 50°53' W 001°24'  

Dump ship's entire track history